createdAt,value
2022-11-20T00:01:11.772Z,6.55
2022-11-20T00:07:09.677Z,6.65
2022-11-20T00:12:36.082Z,6.56
2022-11-20T00:18:09.782Z,6.58
2022-11-20T00:23:40.371Z,6.65
2022-11-20T00:29:17.805Z,6.70
2022-11-20T00:32:06.402Z,6.76
2022-11-20T00:37:36.083Z,6.80
2022-11-20T00:40:24.183Z,6.80
2022-11-20T00:46:00.493Z,6.93
2022-11-20T00:48:49.918Z,6.92
2022-11-20T00:54:29.907Z,7.07
2022-11-20T01:00:01.815Z,6.89
2022-11-20T01:02:50.989Z,6.88
2022-11-20T01:05:43.741Z,6.91
2022-11-20T01:11:24.032Z,6.87
2022-11-20T01:14:16.139Z,6.79
2022-11-20T01:20:00.926Z,6.84
2022-11-20T01:22:49.473Z,6.79
2022-11-20T01:28:20.323Z,6.62
2022-11-20T01:31:14.696Z,6.70
2022-11-20T01:34:05.346Z,6.59
2022-11-20T01:36:54.343Z,6.67
2022-11-20T01:42:42.125Z,6.85
2022-11-20T01:48:50.837Z,6.76
2022-11-20T01:54:31.901Z,6.64
2022-11-20T02:00:11.299Z,6.63
2022-11-20T02:05:48.566Z,6.58
2022-11-20T02:08:37.245Z,6.50
2022-11-20T02:11:25.727Z,6.55
2022-11-20T02:14:14.463Z,6.67
2022-11-20T02:17:02.810Z,6.71
2022-11-20T02:22:41.489Z,6.85
2022-11-20T02:28:21.013Z,6.32
2022-11-20T02:31:09.384Z,6.44
2022-11-20T02:36:47.706Z,6.54
2022-11-20T02:42:17.134Z,6.62
2022-11-20T02:51:08.814Z,6.68
2022-11-20T02:57:45.118Z,6.72
2022-11-20T03:04:19.969Z,6.58
2022-11-20T03:10:55.812Z,6.65
2022-11-20T03:17:06.390Z,6.63
2022-11-20T03:23:43.007Z,6.57
2022-11-20T03:30:18.884Z,6.51
2022-11-20T03:36:54.173Z,6.53
2022-11-20T03:43:29.987Z,6.52
2022-11-20T03:48:59.004Z,6.59
2022-11-20T03:51:48.718Z,6.49
2022-11-20T03:54:38.086Z,6.58
2022-11-20T04:00:14.973Z,6.60
2022-11-20T04:05:50.517Z,6.52
2022-11-20T04:11:26.434Z,6.73
2022-11-20T04:14:17.142Z,6.74
2022-11-20T04:17:06.332Z,6.77
2022-11-20T04:22:38.662Z,6.86
2022-11-20T04:25:27.376Z,6.81
2022-11-20T04:28:18.689Z,6.86
2022-11-20T04:33:56.204Z,6.73
2022-11-20T04:36:45.831Z,6.79
2022-11-20T04:39:34.339Z,6.85
2022-11-20T04:45:12.184Z,6.41
2022-11-20T04:48:02.148Z,6.47
2022-11-20T04:53:32.959Z,6.60
2022-11-20T04:56:22.102Z,6.50
2022-11-20T05:01:59.706Z,6.46
2022-11-20T05:07:36.547Z,6.12
2022-11-20T05:13:08.924Z,6.16
2022-11-20T05:15:57.437Z,5.95
2022-11-20T05:21:33.176Z,5.98
2022-11-20T05:24:21.558Z,5.86
2022-11-20T05:27:10.180Z,5.83
2022-11-20T05:29:58.327Z,5.69
2022-11-20T05:32:46.122Z,5.63
2022-11-20T05:35:34.727Z,5.72
2022-11-20T05:38:23.460Z,5.79
2022-11-20T05:41:13.463Z,5.76
2022-11-20T05:46:47.956Z,5.67
2022-11-20T05:52:18.115Z,5.97
2022-11-20T05:55:07.522Z,5.99
2022-11-20T05:57:56.413Z,6.10
2022-11-20T06:00:44.533Z,6.11
2022-11-20T06:03:34.099Z,6.03
2022-11-20T06:06:26.276Z,6.15
2022-11-20T06:09:15.756Z,6.17
2022-11-20T06:12:04.110Z,6.19
2022-11-20T06:17:39.763Z,6.38
2022-11-20T06:23:08.851Z,6.46
2022-11-20T06:28:44.581Z,6.41
2022-11-20T06:31:35.787Z,6.38
2022-11-20T06:34:26.247Z,6.28
2022-11-20T06:37:15.751Z,6.36
2022-11-20T06:42:52.208Z,6.25
2022-11-20T06:45:42.071Z,6.15
2022-11-20T06:48:30.822Z,6.27
2022-11-20T06:51:19.714Z,6.24
2022-11-20T06:54:08.086Z,6.14
2022-11-20T06:59:47.373Z,6.35
2022-11-20T07:05:17.095Z,6.39
2022-11-20T07:08:07.052Z,6.44
2022-11-20T07:16:25.486Z,6.58
2022-11-20T07:22:17.875Z,6.54
2022-11-20T07:27:48.699Z,6.69
2022-11-20T07:33:25.153Z,6.88
2022-11-20T07:39:01.518Z,6.78
2022-11-20T07:41:49.500Z,6.73
2022-11-20T07:44:37.600Z,6.47
2022-11-20T07:47:25.942Z,6.59
2022-11-20T07:52:58.297Z,6.89
2022-11-20T07:55:46.629Z,6.81
2022-11-20T07:58:35.694Z,6.86
2022-11-20T08:01:24.130Z,6.94
2022-11-20T08:06:59.279Z,7.09
2022-11-20T08:09:47.689Z,6.89
2022-11-20T08:12:54.914Z,6.67
2022-11-20T08:15:43.451Z,6.77
2022-11-20T08:21:20.378Z,7.11
2022-11-20T08:26:58.547Z,7.51
2022-11-20T08:29:48.036Z,7.51
2022-11-20T08:32:38.276Z,7.68
2022-11-20T08:35:28.016Z,7.48
2022-11-20T08:38:17.447Z,7.54
2022-11-20T08:43:55.655Z,7.29
2022-11-20T08:49:31.295Z,7.26
2022-11-20T08:55:09.309Z,7.43
2022-11-20T08:57:57.362Z,7.23
2022-11-20T09:03:33.079Z,7.45
2022-11-20T09:06:21.767Z,7.35
2022-11-20T09:09:10.088Z,7.53
2022-11-20T09:14:40.582Z,7.50
2022-11-20T09:17:28.993Z,7.36
2022-11-20T09:20:18.184Z,7.35
2022-11-20T09:23:06.129Z,7.57
2022-11-20T09:28:43.523Z,7.70
2022-11-20T09:34:19.844Z,7.88
2022-11-20T09:39:53.427Z,8.08
2022-11-20T09:45:27.258Z,8.23
2022-11-20T09:51:26.079Z,8.51
2022-11-20T09:54:21.025Z,8.42
2022-11-20T09:57:13.126Z,8.37
2022-11-20T10:02:55.606Z,8.61
2022-11-20T10:08:37.082Z,8.73
2022-11-20T10:14:12.595Z,8.22
2022-11-20T10:20:02.128Z,8.09
2022-11-20T10:25:54.102Z,8.13
2022-11-20T10:31:36.383Z,8.60
2022-11-20T10:37:15.267Z,9.11
2022-11-20T10:42:55.063Z,9.33
2022-11-20T10:48:36.245Z,9.53
2022-11-20T10:54:26.832Z,9.34
2022-11-20T11:00:12.747Z,9.28
2022-11-20T11:05:51.165Z,8.91
2022-11-20T11:11:24.900Z,8.95
2022-11-20T11:14:15.171Z,8.94
2022-11-20T11:17:03.784Z,8.84
2022-11-20T11:22:58.493Z,9.10
2022-11-20T11:25:50.634Z,8.97
2022-11-20T11:31:26.750Z,9.23
2022-11-20T11:42:59.596Z,9.44
2022-11-20T11:48:40.682Z,9.22
2022-11-20T11:51:31.990Z,9.60
2022-11-20T11:57:14.200Z,9.45
2022-11-20T12:02:57.712Z,9.25
2022-11-20T12:05:49.272Z,8.87
2022-11-20T12:08:40.925Z,8.74
2022-11-20T12:14:20.647Z,9.25
2022-11-20T12:19:56.083Z,9.11
2022-11-20T12:25:31.184Z,9.38
2022-11-20T12:31:33.196Z,9.16
2022-11-20T12:34:48.395Z,8.82
2022-11-20T12:40:34.830Z,8.44
2022-11-20T12:43:44.008Z,8.23
2022-11-20T12:52:24.648Z,8.78
2022-11-20T12:58:19.005Z,9.01
2022-11-20T13:01:12.307Z,8.99
2022-11-20T13:06:53.529Z,8.88
2022-11-20T13:12:33.240Z,8.59
2022-11-20T13:18:13.323Z,8.63
2022-11-20T13:21:02.792Z,8.74
2022-11-20T13:29:22.936Z,9.28
2022-11-20T13:35:01.059Z,9.53
2022-11-20T13:40:37.510Z,9.74
2022-11-20T13:46:24.615Z,9.66
2022-11-20T13:52:25.461Z,9.57
2022-11-20T13:58:12.629Z,9.55
2022-11-20T14:04:05.535Z,9.36
2022-11-20T14:06:44.531Z,9.39
2022-11-20T14:09:34.946Z,9.30
2022-11-20T14:15:28.643Z,9.47
2022-11-20T14:18:22.586Z,9.62
2022-11-20T14:21:12.695Z,9.48
2022-11-20T14:26:59.108Z,9.20
2022-11-20T14:29:48.438Z,8.89
2022-11-20T14:35:20.688Z,8.90
2022-11-20T14:41:09.596Z,9.09
2022-11-20T14:43:59.537Z,9.01
2022-11-20T14:46:47.491Z,8.98
2022-11-20T14:49:37.002Z,8.97
2022-11-20T14:52:26.554Z,8.84
2022-11-20T14:55:16.979Z,8.80
2022-11-20T15:00:58.626Z,8.81
2022-11-20T15:03:47.090Z,8.87
2022-11-20T15:09:18.244Z,8.89
2022-11-20T15:14:52.635Z,8.92
2022-11-20T15:20:34.849Z,8.82
2022-11-20T15:26:18.375Z,8.54
2022-11-20T15:31:51.275Z,8.34
2022-11-20T15:34:40.321Z,8.18
2022-11-20T15:37:30.074Z,8.12
2022-11-20T15:43:11.379Z,8.11
2022-11-20T15:48:47.925Z,7.97
2022-11-20T15:54:25.464Z,7.78
2022-11-20T16:00:23.433Z,7.73
2022-11-20T16:06:03.454Z,7.87
2022-11-20T16:08:54.100Z,7.73
2022-11-20T16:11:42.939Z,7.60
2022-11-20T16:14:50.645Z,7.72
2022-11-20T16:17:44.620Z,7.59
2022-11-20T16:23:17.167Z,7.69
2022-11-20T16:26:12.777Z,7.71
2022-11-20T16:34:36.943Z,7.52
2022-11-20T16:37:25.198Z,7.50
2022-11-20T16:45:46.742Z,7.50
2022-11-20T16:48:35.215Z,7.43
2022-11-20T16:51:24.275Z,7.51
2022-11-20T16:54:30.610Z,7.48
2022-11-20T17:00:19.803Z,7.62
2022-11-20T17:05:55.815Z,7.66
2022-11-20T17:11:30.855Z,7.72
2022-11-20T17:17:07.423Z,7.86
2022-11-20T17:19:58.553Z,7.70
2022-11-20T17:25:29.087Z,7.52
2022-11-20T17:31:03.986Z,7.65
2022-11-20T17:33:52.242Z,7.35
2022-11-20T17:39:26.283Z,7.42
2022-11-20T17:47:44.712Z,7.58
2022-11-20T17:50:33.165Z,7.62
2022-11-20T17:57:04.454Z,7.69
2022-11-20T18:02:31.410Z,7.51
2022-11-20T18:08:01.715Z,7.50
2022-11-20T18:13:33.983Z,7.54
2022-11-20T18:16:22.749Z,7.69
2022-11-20T18:21:50.539Z,7.69
2022-11-20T18:30:42.734Z,7.74
2022-11-20T18:53:26.623Z,7.61
2022-11-20T19:01:41.614Z,7.14
2022-11-20T19:07:18.797Z,6.98
2022-11-20T19:10:10.443Z,6.79
2022-11-20T19:15:46.629Z,6.56
2022-11-20T19:18:34.962Z,6.55
2022-11-20T19:21:24.819Z,6.62
2022-11-20T19:24:13.867Z,6.65
2022-11-20T19:27:02.067Z,6.50
2022-11-20T19:29:55.434Z,6.48
2022-11-20T19:32:45.028Z,6.53
2022-11-20T19:35:33.432Z,6.49
2022-11-20T19:41:04.941Z,6.48
2022-11-20T19:46:37.762Z,6.22
2022-11-20T19:52:17.466Z,6.02
2022-11-20T19:57:45.870Z,5.87
2022-11-20T20:03:15.146Z,5.91
2022-11-20T20:08:49.555Z,6.00
2022-11-20T20:14:26.129Z,5.70
2022-11-20T20:17:14.059Z,5.47
2022-11-20T20:20:02.257Z,5.57
2022-11-20T20:25:38.909Z,5.60
2022-11-20T20:31:12.434Z,5.73
2022-11-20T20:34:00.752Z,5.67
2022-11-20T20:36:49.919Z,5.68
2022-11-20T20:39:38.766Z,5.81
2022-11-20T20:45:18.489Z,5.73
2022-11-20T20:50:55.993Z,5.22
2022-11-20T20:53:45.295Z,5.18
2022-11-20T20:59:21.934Z,5.17
2022-11-20T21:02:11.851Z,5.19
2022-11-20T21:08:02.530Z,5.34
2022-11-20T21:18:05.011Z,5.32
2022-11-20T21:23:41.724Z,5.32
2022-11-20T21:29:14.172Z,5.24
2022-11-20T21:32:02.382Z,5.21
2022-11-20T21:37:40.863Z,5.13
2022-11-20T21:43:12.031Z,5.18
2022-11-20T21:46:08.704Z,5.21
2022-11-20T21:48:57.110Z,5.15
2022-11-20T21:54:35.266Z,5.05
2022-11-20T21:57:23.928Z,5.04
2022-11-20T22:03:24.174Z,5.03
2022-11-20T22:08:49.812Z,5.17
2022-11-20T22:14:38.680Z,5.21
2022-11-20T22:20:20.272Z,5.28
2022-11-20T22:25:48.896Z,5.09
2022-11-20T22:28:37.853Z,5.12
2022-11-20T22:34:16.457Z,5.09
2022-11-20T22:45:31.372Z,5.25
2022-11-20T22:51:11.094Z,5.07
2022-11-20T22:56:48.434Z,5.03
2022-11-20T22:59:39.573Z,5.11
2022-11-20T23:02:28.070Z,5.00
2022-11-20T23:08:03.563Z,4.99
2022-11-20T23:13:35.613Z,4.86
2022-11-20T23:19:14.115Z,5.02
2022-11-20T23:24:50.658Z,5.16
2022-11-20T23:30:21.429Z,5.17
2022-11-20T23:35:50.564Z,5.23
2022-11-20T23:41:33.401Z,5.18
2022-11-20T23:47:03.352Z,5.10
2022-11-20T23:52:37.499Z,5.23
2022-11-20T23:55:25.729Z,5.20
2022-11-20T23:58:14.295Z,5.23
